createdAt,value
2023-04-13T00:00:48.269Z,6.18
2023-04-13T00:03:17.428Z,6.10
2023-04-13T00:05:46.309Z,6.17
2023-04-13T00:08:13.370Z,6.16
2023-04-13T00:10:41.895Z,6.28
2023-04-13T00:13:10.591Z,6.18
2023-04-13T00:15:42.104Z,6.26
2023-04-13T00:18:10.769Z,6.38
2023-04-13T00:20:38.644Z,6.42
2023-04-13T00:23:05.294Z,6.34
2023-04-13T00:25:32.032Z,6.30
2023-04-13T00:28:02.977Z,6.35
2023-04-13T00:30:30.375Z,6.62
2023-04-13T00:32:57.140Z,6.34
2023-04-13T00:35:25.245Z,6.60
2023-04-13T00:37:53.449Z,6.64
2023-04-13T00:40:20.350Z,6.83
2023-04-13T00:42:48.543Z,6.66
2023-04-13T00:45:16.301Z,6.61
2023-04-13T00:47:46.756Z,6.53
2023-04-13T00:50:14.975Z,6.97
2023-04-13T00:52:42.946Z,6.85
2023-04-13T00:55:09.753Z,6.93
2023-04-13T00:57:40.767Z,6.92
2023-04-13T01:00:09.618Z,6.83
2023-04-13T01:02:41.930Z,6.97
2023-04-13T01:05:12.429Z,6.90
2023-04-13T01:07:45.507Z,6.91
2023-04-13T01:10:31.216Z,7.06
2023-04-13T01:13:16.214Z,7.13
2023-04-13T01:15:46.900Z,7.09
2023-04-13T01:18:15.684Z,7.10
2023-04-13T01:20:45.610Z,7.00
2023-04-13T01:23:27.927Z,7.12
2023-04-13T01:26:01.637Z,7.02
2023-04-13T01:28:29.023Z,7.12
2023-04-13T01:30:57.730Z,6.99
2023-04-13T01:33:25.509Z,6.98
2023-04-13T01:35:52.690Z,7.04
2023-04-13T01:38:26.679Z,7.07
2023-04-13T01:40:53.319Z,7.11
2023-04-13T01:43:20.915Z,7.00
2023-04-13T01:46:08.680Z,6.95
2023-04-13T01:48:42.457Z,7.07
2023-04-13T01:51:19.390Z,7.00
2023-04-13T01:54:02.772Z,6.91
2023-04-13T01:56:29.697Z,6.98
2023-04-13T01:58:58.768Z,6.74
2023-04-13T02:01:26.901Z,6.75
2023-04-13T02:03:53.710Z,6.78
2023-04-13T02:06:20.927Z,6.61
2023-04-13T02:08:50.067Z,6.53
2023-04-13T02:11:17.716Z,6.76
2023-04-13T02:13:44.704Z,6.83
2023-04-13T02:16:11.694Z,6.72
2023-04-13T02:18:38.781Z,6.69
2023-04-13T02:21:12.131Z,6.62
2023-04-13T02:23:40.846Z,6.65
2023-04-13T02:26:18.979Z,6.50
2023-04-13T02:28:48.366Z,6.53
2023-04-13T02:31:17.186Z,6.47
2023-04-13T02:33:45.189Z,6.47
2023-04-13T02:36:12.822Z,6.33
2023-04-13T02:38:39.434Z,6.55
2023-04-13T02:41:06.694Z,6.51
2023-04-13T02:43:33.510Z,6.37
2023-04-13T02:46:00.387Z,6.51
2023-04-13T02:48:27.045Z,6.38
2023-04-13T02:50:54.198Z,6.45
2023-04-13T02:53:22.044Z,6.31
2023-04-13T02:55:50.456Z,6.43
2023-04-13T02:58:17.359Z,6.44
2023-04-13T03:00:44.682Z,6.39
2023-04-13T03:03:11.656Z,6.28
2023-04-13T03:05:39.036Z,6.35
2023-04-13T03:08:05.761Z,6.41
2023-04-13T03:10:32.372Z,6.45
2023-04-13T03:12:59.054Z,6.38
2023-04-13T03:15:25.586Z,6.40
2023-04-13T03:17:53.041Z,6.31
2023-04-13T03:20:21.202Z,6.38
2023-04-13T03:22:47.770Z,6.40
2023-04-13T03:25:14.576Z,6.50
2023-04-13T03:27:41.121Z,6.44
2023-04-13T03:30:09.001Z,6.57
2023-04-13T03:32:35.897Z,6.51
2023-04-13T03:35:02.566Z,6.53
2023-04-13T03:37:32.544Z,6.47
2023-04-13T03:39:59.189Z,6.42
2023-04-13T03:42:25.698Z,6.41
2023-04-13T03:44:52.999Z,6.39
2023-04-13T03:47:19.721Z,6.57
2023-04-13T03:49:47.137Z,6.57
2023-04-13T03:52:13.744Z,6.54
2023-04-13T03:54:40.481Z,6.47
2023-04-13T03:57:07.482Z,6.58
2023-04-13T03:59:34.323Z,6.69
2023-04-13T04:02:03.008Z,6.47
2023-04-13T04:04:29.769Z,6.58
2023-04-13T04:06:58.003Z,6.61
2023-04-13T04:09:25.444Z,6.57
2023-04-13T04:11:52.057Z,6.55
2023-04-13T04:14:19.190Z,6.43
2023-04-13T04:16:46.194Z,6.56
2023-04-13T04:19:12.774Z,6.51
2023-04-13T04:21:44.697Z,6.46
2023-04-13T04:24:12.553Z,6.45
2023-04-13T04:26:40.311Z,6.56
2023-04-13T04:29:09.018Z,6.58
2023-04-13T04:31:37.547Z,6.65
2023-04-13T04:34:04.531Z,6.60
2023-04-13T04:36:31.201Z,6.70
2023-04-13T04:39:02.770Z,6.62
2023-04-13T04:41:31.388Z,6.67
2023-04-13T04:44:02.921Z,6.54
2023-04-13T04:46:29.861Z,6.56
2023-04-13T04:49:01.027Z,6.64
2023-04-13T04:51:28.133Z,6.45
2023-04-13T04:53:54.919Z,6.63
2023-04-13T04:56:21.824Z,6.46
2023-04-13T04:58:48.395Z,6.67
2023-04-13T05:01:15.021Z,6.59
2023-04-13T05:03:42.203Z,6.59
2023-04-13T05:06:09.445Z,6.67
2023-04-13T05:08:36.036Z,6.48
2023-04-13T05:11:06.151Z,6.55
2023-04-13T05:13:32.808Z,6.54
2023-04-13T05:15:59.602Z,6.54
2023-04-13T05:18:26.178Z,6.56
2023-04-13T05:20:52.762Z,6.46
2023-04-13T05:23:19.278Z,6.67
2023-04-13T05:25:45.845Z,6.78
2023-04-13T05:28:12.486Z,6.80
2023-04-13T05:30:39.092Z,6.59
2023-04-13T05:33:06.602Z,6.65
2023-04-13T05:35:33.174Z,6.66
2023-04-13T05:38:00.892Z,6.77
2023-04-13T05:40:29.098Z,6.76
2023-04-13T05:42:56.304Z,6.63
2023-04-13T05:45:24.351Z,6.70
2023-04-13T05:47:50.953Z,6.75
2023-04-13T05:50:17.917Z,6.83
2023-04-13T05:52:44.525Z,6.78
2023-04-13T05:55:11.840Z,6.72
2023-04-13T05:57:38.451Z,6.62
2023-04-13T06:00:08.236Z,6.65
2023-04-13T06:02:36.275Z,6.64
2023-04-13T06:05:05.165Z,6.83
2023-04-13T06:07:31.880Z,6.74
2023-04-13T06:10:00.797Z,6.67
2023-04-13T06:12:27.659Z,6.61
2023-04-13T06:14:55.152Z,6.65
2023-04-13T06:17:21.755Z,6.72
2023-04-13T06:19:48.480Z,6.86
2023-04-13T06:22:15.031Z,6.86
2023-04-13T06:24:41.694Z,6.79
2023-04-13T06:27:08.467Z,6.65
2023-04-13T06:29:35.104Z,6.79
2023-04-13T06:32:01.869Z,6.71
2023-04-13T06:34:28.556Z,6.78
2023-04-13T06:36:55.349Z,6.89
2023-04-13T06:39:21.874Z,6.94
2023-04-13T06:41:48.399Z,6.96
2023-04-13T06:44:15.043Z,6.91
2023-04-13T06:46:41.760Z,6.81
2023-04-13T06:49:09.245Z,6.81
2023-04-13T06:51:36.098Z,6.86
2023-04-13T06:54:02.726Z,6.99
2023-04-13T06:56:29.511Z,6.98
2023-04-13T06:59:02.332Z,7.12
2023-04-13T07:01:29.646Z,7.22
2023-04-13T07:03:56.892Z,7.17
2023-04-13T07:06:23.711Z,7.26
2023-04-13T07:08:50.725Z,7.44
2023-04-13T07:11:17.304Z,7.51
2023-04-13T07:13:44.093Z,7.60
2023-04-13T07:16:12.337Z,7.64
2023-04-13T07:18:39.025Z,7.73
2023-04-13T07:21:06.157Z,7.85
2023-04-13T07:23:33.800Z,7.82
2023-04-13T07:26:00.859Z,7.90
2023-04-13T07:28:28.501Z,7.89
2023-04-13T07:30:55.106Z,7.83
2023-04-13T07:33:21.763Z,7.74
2023-04-13T07:35:50.300Z,7.61
2023-04-13T07:38:16.992Z,7.63
2023-04-13T07:40:43.540Z,7.49
2023-04-13T07:43:10.267Z,7.46
2023-04-13T07:45:36.812Z,7.46
2023-04-13T07:48:03.693Z,7.36
2023-04-13T07:50:31.242Z,7.37
2023-04-13T07:52:57.767Z,7.33
2023-04-13T07:55:24.506Z,7.50
2023-04-13T07:57:51.079Z,7.62
2023-04-13T08:00:20.441Z,7.54
2023-04-13T08:02:47.761Z,7.62
2023-04-13T08:05:14.866Z,7.56
2023-04-13T08:07:41.531Z,7.55
2023-04-13T08:10:08.904Z,7.63
2023-04-13T08:12:35.469Z,7.80
2023-04-13T08:15:02.439Z,7.99
2023-04-13T08:17:29.054Z,8.07
2023-04-13T08:19:55.604Z,8.38
2023-04-13T08:22:22.149Z,8.22
2023-04-13T08:24:48.825Z,8.09
2023-04-13T08:27:15.722Z,8.26
2023-04-13T08:29:42.281Z,8.28
2023-04-13T08:32:08.814Z,8.36
2023-04-13T08:34:35.390Z,8.63
2023-04-13T08:37:02.335Z,8.67
2023-04-13T08:39:28.909Z,8.84
2023-04-13T08:41:55.556Z,8.94
2023-04-13T08:44:23.584Z,8.84
2023-04-13T08:46:52.574Z,8.73
2023-04-13T08:49:19.871Z,8.88
2023-04-13T08:51:47.454Z,8.84
2023-04-13T08:54:16.401Z,8.80
2023-04-13T08:56:47.157Z,8.55
2023-04-13T08:59:17.200Z,8.53
2023-04-13T09:01:46.771Z,8.67
2023-04-13T09:04:18.193Z,8.65
2023-04-13T09:06:47.933Z,8.68
2023-04-13T09:09:14.983Z,8.72
2023-04-13T09:11:43.361Z,9.03
2023-04-13T09:14:10.521Z,9.03
2023-04-13T09:16:41.606Z,8.70
2023-04-13T09:19:08.867Z,8.87
2023-04-13T09:21:38.230Z,8.67
2023-04-13T09:24:07.186Z,8.77
2023-04-13T09:26:47.357Z,8.92
2023-04-13T09:29:19.299Z,9.10
2023-04-13T09:31:47.464Z,9.32
2023-04-13T09:34:15.542Z,9.14
2023-04-13T09:36:53.496Z,9.46
2023-04-13T09:39:26.242Z,9.41
2023-04-13T09:41:53.541Z,9.13
2023-04-13T09:44:24.351Z,8.95
2023-04-13T09:47:02.219Z,9.12
2023-04-13T09:49:42.706Z,8.89
2023-04-13T09:52:25.107Z,8.88
2023-04-13T09:54:53.350Z,9.11
2023-04-13T09:57:25.788Z,9.36
2023-04-13T09:59:53.977Z,9.76
2023-04-13T10:02:21.709Z,9.91
2023-04-13T10:04:48.523Z,9.93
2023-04-13T10:07:15.145Z,9.48
2023-04-13T10:09:44.208Z,9.21
2023-04-13T10:12:12.144Z,9.73
2023-04-13T10:14:41.057Z,9.69
2023-04-13T10:17:38.085Z,9.85
2023-04-13T10:20:10.486Z,10.06
2023-04-13T10:22:39.473Z,9.64
2023-04-13T10:25:07.316Z,9.77
2023-04-13T10:27:36.520Z,9.85
2023-04-13T10:30:16.847Z,9.38
2023-04-13T10:32:43.735Z,9.69
2023-04-13T10:35:12.242Z,9.94
2023-04-13T10:37:40.649Z,9.80
2023-04-13T10:40:13.478Z,9.32
2023-04-13T10:45:18.286Z,9.30
2023-04-13T10:47:44.925Z,9.38
2023-04-13T10:50:24.916Z,9.61
2023-04-13T10:53:05.109Z,9.44
2023-04-13T10:55:32.999Z,9.72
2023-04-13T10:58:01.470Z,9.82
2023-04-13T11:00:45.702Z,9.52
2023-04-13T11:03:17.976Z,9.65
2023-04-13T11:05:59.132Z,9.53
2023-04-13T11:08:28.074Z,9.35
2023-04-13T11:10:57.140Z,9.49
2023-04-13T11:13:29.696Z,9.75
2023-04-13T11:16:04.780Z,9.88
2023-04-13T11:18:32.279Z,9.37
2023-04-13T11:20:58.954Z,9.74
2023-04-13T11:23:25.554Z,10.12
2023-04-13T11:25:53.198Z,9.88
2023-04-13T11:28:20.149Z,9.79
2023-04-13T11:30:54.670Z,10.29
2023-04-13T11:33:25.178Z,10.19
2023-04-13T11:35:53.125Z,10.24
2023-04-13T11:38:20.496Z,10.31
2023-04-13T11:40:48.345Z,10.49
2023-04-13T11:43:18.801Z,10.79
2023-04-13T11:45:47.320Z,10.41
2023-04-13T11:48:14.798Z,10.31
2023-04-13T11:50:42.284Z,10.41
2023-04-13T11:53:10.242Z,10.53
2023-04-13T11:55:51.885Z,10.19
2023-04-13T11:58:21.404Z,10.34
2023-04-13T12:00:48.631Z,10.34
2023-04-13T12:05:47.807Z,10.92
2023-04-13T12:08:24.641Z,11.05
2023-04-13T12:11:20.107Z,11.11
2023-04-13T12:13:50.343Z,10.60
2023-04-13T12:19:09.876Z,10.79
2023-04-13T12:21:37.008Z,10.47
2023-04-13T12:24:05.657Z,10.45
2023-04-13T12:29:08.585Z,9.41
2023-04-13T12:31:37.168Z,9.00
2023-04-13T12:34:07.753Z,8.42
2023-04-13T12:36:36.373Z,8.68
2023-04-13T12:39:04.466Z,8.41
2023-04-13T12:41:32.408Z,8.12
2023-04-13T12:43:59.021Z,7.68
2023-04-13T12:46:26.646Z,7.68
2023-04-13T12:48:54.100Z,7.44
2023-04-13T12:51:20.777Z,7.30
2023-04-13T12:53:47.877Z,7.30
2023-04-13T12:56:14.446Z,7.34
2023-04-13T12:58:40.983Z,7.48
2023-04-13T13:01:08.651Z,7.56
2023-04-13T13:03:37.034Z,7.43
2023-04-13T13:06:05.324Z,7.49
2023-04-13T13:08:34.963Z,7.48
2023-04-13T13:11:03.674Z,7.51
2023-04-13T13:13:30.427Z,7.45
2023-04-13T13:15:57.161Z,7.47
2023-04-13T13:18:24.783Z,7.39
2023-04-13T13:20:54.859Z,7.23
2023-04-13T13:23:21.467Z,6.83
2023-04-13T13:26:10.563Z,6.91
2023-04-13T13:28:35.949Z,6.83
2023-04-13T13:31:02.583Z,6.75
2023-04-13T13:33:29.154Z,6.69
2023-04-13T13:35:55.911Z,6.71
2023-04-13T13:38:22.440Z,6.78
2023-04-13T13:40:49.265Z,6.70
2023-04-13T13:43:18.017Z,6.91
2023-04-13T13:45:44.698Z,6.84
2023-04-13T13:48:11.577Z,6.77
2023-04-13T13:50:38.135Z,6.79
2023-04-13T13:53:05.152Z,6.78
2023-04-13T13:55:31.986Z,6.98
2023-04-13T13:57:58.888Z,6.96
2023-04-13T14:00:25.996Z,7.03
2023-04-13T14:02:53.199Z,7.22
2023-04-13T14:05:21.897Z,7.23
2023-04-13T14:07:48.782Z,7.32
2023-04-13T14:10:15.504Z,7.34
2023-04-13T14:12:45.166Z,7.45
2023-04-13T14:15:12.778Z,7.17
2023-04-13T14:17:40.353Z,7.41
2023-04-13T14:20:11.810Z,7.59
2023-04-13T14:22:39.700Z,7.63
2023-04-13T14:25:07.518Z,7.59
2023-04-13T14:27:34.089Z,7.48
2023-04-13T14:30:02.053Z,7.48
2023-04-13T14:32:29.136Z,7.53
2023-04-13T14:35:00.144Z,7.59
2023-04-13T14:37:28.116Z,7.88
2023-04-13T14:39:55.250Z,7.75
2023-04-13T14:42:24.322Z,7.98
2023-04-13T14:44:54.368Z,8.00
2023-04-13T14:47:21.061Z,7.76
2023-04-13T14:49:47.666Z,7.73
2023-04-13T14:52:14.758Z,7.96
2023-04-13T14:54:42.065Z,7.76
2023-04-13T14:57:09.369Z,7.68
2023-04-13T14:59:35.953Z,7.60
2023-04-13T15:02:02.739Z,7.58
2023-04-13T15:04:29.860Z,7.65
2023-04-13T15:06:56.596Z,7.67
2023-04-13T15:09:23.949Z,7.91
2023-04-13T15:11:52.027Z,7.78
2023-04-13T15:14:18.654Z,7.80
2023-04-13T15:16:45.527Z,7.70
2023-04-13T15:19:12.808Z,7.76
2023-04-13T15:21:39.431Z,7.89
2023-04-13T15:24:06.652Z,7.86
2023-04-13T15:26:39.453Z,7.82
2023-04-13T15:29:07.232Z,7.64
2023-04-13T15:31:36.599Z,7.51
2023-04-13T15:34:05.601Z,7.62
2023-04-13T15:36:32.258Z,7.44
2023-04-13T15:38:59.230Z,7.25
2023-04-13T15:41:27.826Z,7.35
2023-04-13T15:43:56.092Z,9.95
2023-04-13T15:46:22.954Z,8.50
2023-04-13T15:48:50.514Z,8.27
2023-04-13T15:51:17.250Z,-139.91
2023-04-13T15:53:43.800Z,-139.91
2023-04-13T15:56:10.416Z,-139.91
2023-04-13T15:58:37.208Z,-139.91
2023-04-13T16:01:06.241Z,-139.91
2023-04-13T16:03:34.164Z,-139.91
2023-04-13T16:06:01.312Z,8.31
2023-04-13T16:08:29.045Z,8.65
2023-04-13T16:10:55.742Z,8.85
2023-04-13T16:13:22.627Z,9.17
2023-04-13T16:15:55.613Z,10.05
2023-04-13T16:18:28.944Z,10.84
2023-04-13T16:20:59.139Z,10.44
2023-04-13T16:23:27.843Z,10.06
2023-04-13T16:25:54.694Z,9.93
2023-04-13T16:28:21.845Z,10.62
2023-04-13T16:30:49.325Z,10.44
2023-04-13T16:33:16.013Z,10.30
2023-04-13T16:35:42.584Z,10.50
2023-04-13T16:38:09.211Z,10.15
2023-04-13T16:40:36.091Z,10.18
2023-04-13T16:43:05.276Z,9.93
2023-04-13T16:45:32.713Z,9.63
2023-04-13T16:48:00.048Z,9.88
2023-04-13T16:50:30.343Z,10.00
2023-04-13T16:52:59.355Z,9.59
2023-04-13T16:55:28.372Z,9.85
2023-04-13T16:57:55.691Z,10.71
2023-04-13T17:00:23.214Z,11.13
2023-04-13T17:02:49.999Z,11.10
2023-04-13T17:05:17.038Z,11.28
2023-04-13T17:07:46.709Z,11.56
2023-04-13T17:10:14.403Z,11.58
2023-04-13T17:12:41.298Z,11.04
2023-04-13T17:15:09.565Z,10.97
2023-04-13T17:17:38.073Z,10.76
2023-04-13T17:20:05.907Z,10.84
2023-04-13T17:22:32.553Z,10.59
2023-04-13T17:24:59.208Z,9.80
2023-04-13T17:27:25.769Z,10.11
2023-04-13T17:29:52.406Z,10.29
2023-04-13T17:32:21.612Z,10.62
2023-04-13T17:34:48.970Z,10.28
2023-04-13T17:37:15.843Z,9.95
2023-04-13T17:39:46.451Z,9.73
2023-04-13T17:42:16.477Z,9.51
2023-04-13T17:44:44.015Z,9.69
2023-04-13T17:47:11.162Z,9.63
2023-04-13T17:49:37.997Z,9.49
2023-04-13T17:52:04.658Z,9.52
2023-04-13T17:54:31.684Z,9.46
2023-04-13T17:56:58.787Z,9.50
2023-04-13T17:59:25.805Z,9.36
2023-04-13T18:01:52.781Z,9.53
2023-04-13T18:04:19.773Z,9.39
2023-04-13T18:06:46.469Z,9.28
2023-04-13T18:09:13.051Z,9.34
2023-04-13T18:11:40.009Z,9.31
2023-04-13T18:14:08.950Z,9.38
2023-04-13T18:16:36.145Z,9.32
2023-04-13T18:19:03.493Z,9.41
2023-04-13T18:21:32.229Z,9.42
2023-04-13T18:24:01.716Z,9.41
2023-04-13T18:26:28.799Z,9.40
2023-04-13T18:28:55.516Z,9.38
2023-04-13T18:31:22.288Z,9.29
2023-04-13T18:33:48.864Z,9.37
2023-04-13T18:36:17.247Z,9.21
2023-04-13T18:38:44.862Z,9.21
2023-04-13T18:41:11.839Z,9.35
2023-04-13T18:43:38.460Z,9.23
2023-04-13T18:46:05.655Z,9.24
2023-04-13T18:48:32.392Z,9.20
2023-04-13T18:51:00.313Z,9.16
2023-04-13T18:53:26.917Z,9.06
2023-04-13T18:55:53.568Z,8.94
2023-04-13T18:58:20.807Z,8.67
2023-04-13T19:00:48.002Z,8.59
2023-04-13T19:03:15.081Z,8.53
2023-04-13T19:05:41.813Z,8.54
2023-04-13T19:08:10.037Z,8.53
2023-04-13T19:10:36.696Z,8.48
2023-04-13T19:13:03.550Z,8.47
2023-04-13T19:15:31.395Z,8.54
2023-04-13T19:17:59.317Z,8.64
2023-04-13T19:20:25.992Z,8.53
2023-04-13T19:22:52.527Z,8.53
2023-04-13T19:25:19.411Z,8.60
2023-04-13T19:27:47.119Z,8.74
2023-04-13T19:30:15.616Z,8.58
2023-04-13T19:32:44.313Z,8.49
2023-04-13T19:35:12.945Z,8.65
2023-04-13T19:37:40.993Z,8.68
2023-04-13T19:40:13.962Z,8.62
2023-04-13T19:42:42.362Z,8.75
2023-04-13T19:45:10.087Z,8.60
2023-04-13T19:47:38.388Z,8.58
2023-04-13T19:50:07.549Z,8.65
2023-04-13T19:52:34.206Z,8.65
2023-04-13T19:55:03.078Z,8.75
2023-04-13T19:57:30.857Z,8.66
2023-04-13T19:59:57.915Z,8.66
2023-04-13T20:02:24.965Z,8.69
2023-04-13T20:04:52.219Z,8.64
2023-04-13T20:07:18.872Z,8.96
2023-04-13T20:09:45.713Z,8.73
2023-04-13T20:12:12.650Z,8.78
2023-04-13T20:14:42.422Z,8.84
2023-04-13T20:17:09.556Z,8.69
2023-04-13T20:19:36.701Z,8.69
2023-04-13T20:22:04.459Z,8.75
2023-04-13T20:24:31.752Z,8.71
2023-04-13T20:26:58.938Z,8.69
2023-04-13T20:29:27.234Z,8.80
2023-04-13T20:31:54.783Z,8.77
2023-04-13T20:34:22.171Z,8.62
2023-04-13T20:36:48.956Z,8.73
2023-04-13T20:39:18.562Z,8.74
2023-04-13T20:41:55.106Z,8.74
2023-04-13T20:44:25.907Z,8.70
2023-04-13T20:46:56.189Z,8.71
2023-04-13T20:49:24.142Z,8.69
2023-04-13T20:51:53.710Z,8.66
2023-04-13T20:54:20.545Z,8.65
2023-04-13T20:56:48.508Z,8.58
2023-04-13T20:59:18.502Z,8.71
2023-04-13T21:01:45.748Z,8.58
2023-04-13T21:04:12.535Z,8.70
2023-04-13T21:06:40.609Z,8.62
2023-04-13T21:09:08.640Z,8.74
2023-04-13T21:11:35.672Z,8.79
2023-04-13T21:14:02.582Z,8.87
2023-04-13T21:16:29.504Z,8.73
2023-04-13T21:18:57.084Z,8.63
2023-04-13T21:21:24.923Z,8.70
2023-04-13T21:23:53.180Z,8.75
2023-04-13T21:26:20.602Z,8.70
2023-04-13T21:28:47.275Z,8.61
2023-04-13T21:31:13.826Z,8.68
2023-04-13T21:33:40.507Z,8.57
2023-04-13T21:38:40.851Z,8.66
2023-04-13T21:41:15.105Z,8.62
2023-04-13T21:43:42.802Z,8.57
2023-04-13T21:46:11.316Z,8.58
2023-04-13T21:48:38.238Z,8.61
2023-04-13T21:51:09.164Z,8.53
2023-04-13T21:53:36.426Z,8.49
2023-04-13T21:56:03.960Z,8.52
2023-04-13T21:58:44.743Z,8.48
2023-04-13T22:01:12.877Z,8.44
2023-04-13T22:03:42.027Z,8.43
2023-04-13T22:06:10.125Z,8.42
2023-04-13T22:08:37.016Z,8.42
2023-04-13T22:11:04.289Z,8.45
2023-04-13T22:13:31.227Z,8.30
2023-04-13T22:15:57.948Z,8.42
2023-04-13T22:18:24.897Z,8.54
2023-04-13T22:20:51.482Z,8.47
2023-04-13T22:23:18.848Z,8.59
2023-04-13T22:26:01.720Z,8.50
2023-04-13T22:28:29.694Z,8.42
2023-04-13T22:30:56.302Z,8.45
2023-04-13T22:33:23.228Z,8.50
2023-04-13T22:35:50.789Z,8.45
2023-04-13T22:38:20.475Z,8.41
2023-04-13T22:40:47.077Z,8.33
2023-04-13T22:43:13.653Z,8.45
2023-04-13T22:45:40.459Z,8.44
2023-04-13T22:48:07.068Z,8.38
2023-04-13T22:50:35.996Z,8.44
2023-04-13T22:53:02.735Z,8.49
2023-04-13T22:55:29.614Z,8.46
2023-04-13T22:57:56.734Z,8.43
2023-04-13T23:00:23.681Z,8.49
2023-04-13T23:02:52.896Z,8.51
2023-04-13T23:05:19.897Z,8.30
2023-04-13T23:07:46.759Z,8.34
2023-04-13T23:10:15.253Z,8.35
2023-04-13T23:12:43.248Z,8.34
2023-04-13T23:15:10.493Z,8.23
2023-04-13T23:17:37.249Z,8.37
2023-04-13T23:20:08.256Z,8.30
2023-04-13T23:22:34.820Z,8.44
2023-04-13T23:25:01.312Z,8.28
2023-04-13T23:27:27.832Z,8.28
2023-04-13T23:29:54.398Z,8.20
2023-04-13T23:32:22.189Z,8.09
2023-04-13T23:34:48.845Z,8.18
2023-04-13T23:37:15.478Z,8.09
2023-04-13T23:39:42.267Z,8.18
2023-04-13T23:42:09.314Z,8.23
2023-04-13T23:44:35.845Z,8.23
2023-04-13T23:47:02.491Z,8.29
2023-04-13T23:49:29.067Z,8.28
2023-04-13T23:51:55.637Z,8.21
2023-04-13T23:54:22.150Z,8.11
2023-04-13T23:56:48.863Z,8.15
2023-04-13T23:59:15.641Z,8.07
